sensor_id;sensor_type;location;lat;lon;timestamp;temperature;humidity
32534;DHT22;18973;48.580;8.912;2023-06-04T00:00:46;17.70;81.80
32534;DHT22;18973;48.580;8.912;2023-06-04T00:03:12;17.60;83.20
32534;DHT22;18973;48.580;8.912;2023-06-04T00:05:37;17.50;82.20
32534;DHT22;18973;48.580;8.912;2023-06-04T00:08:03;17.50;83.60
32534;DHT22;18973;48.580;8.912;2023-06-04T00:10:29;17.20;84.40
32534;DHT22;18973;48.580;8.912;2023-06-04T00:12:56;17.10;84.30
32534;DHT22;18973;48.580;8.912;2023-06-04T00:15:22;17.00;84.40
32534;DHT22;18973;48.580;8.912;2023-06-04T00:17:48;17.10;83.10
32534;DHT22;18973;48.580;8.912;2023-06-04T00:20:13;17.10;82.70
32534;DHT22;18973;48.580;8.912;2023-06-04T00:22:39;17.20;82.00
32534;DHT22;18973;48.580;8.912;2023-06-04T00:25:08;17.20;81.80
32534;DHT22;18973;48.580;8.912;2023-06-04T00:27:34;17.20;81.60
32534;DHT22;18973;48.580;8.912;2023-06-04T00:29:59;17.20;81.60
32534;DHT22;18973;48.580;8.912;2023-06-04T00:32:25;17.30;81.60
32534;DHT22;18973;48.580;8.912;2023-06-04T00:34:55;17.40;81.20
32534;DHT22;18973;48.580;8.912;2023-06-04T00:37:23;17.40;83.30
32534;DHT22;18973;48.580;8.912;2023-06-04T00:39:49;17.30;84.20
32534;DHT22;18973;48.580;8.912;2023-06-04T00:42:15;17.10;85.80
32534;DHT22;18973;48.580;8.912;2023-06-04T00:44:41;16.80;86.90
32534;DHT22;18973;48.580;8.912;2023-06-04T00:47:13;16.70;87.40
32534;DHT22;18973;48.580;8.912;2023-06-04T00:49:40;16.70;87.90
32534;DHT22;18973;48.580;8.912;2023-06-04T00:52:08;16.50;88.80
32534;DHT22;18973;48.580;8.912;2023-06-04T00:54:35;16.40;88.70
32534;DHT22;18973;48.580;8.912;2023-06-04T00:57:01;16.20;89.90
32534;DHT22;18973;48.580;8.912;2023-06-04T00:59:27;15.90;90.20
32534;DHT22;18973;48.580;8.912;2023-06-04T01:02:12;16.00;90.80
32534;DHT22;18973;48.580;8.912;2023-06-04T01:07:11;16.10;89.30
32534;DHT22;18973;48.580;8.912;2023-06-04T01:09:39;16.20;88.30
32534;DHT22;18973;48.580;8.912;2023-06-04T01:12:06;16.20;87.10
32534;DHT22;18973;48.580;8.912;2023-06-04T01:14:32;16.40;86.60
32534;DHT22;18973;48.580;8.912;2023-06-04T01:22:11;16.20;90.00
32534;DHT22;18973;48.580;8.912;2023-06-04T01:24:44;16.10;90.20
32534;DHT22;18973;48.580;8.912;2023-06-04T01:27:13;16.10;90.10
32534;DHT22;18973;48.580;8.912;2023-06-04T01:29:41;15.90;90.60
32534;DHT22;18973;48.580;8.912;2023-06-04T01:32:08;15.90;90.10
32534;DHT22;18973;48.580;8.912;2023-06-04T01:34:46;15.80;90.80
32534;DHT22;18973;48.580;8.912;2023-06-04T01:37:12;15.80;91.20
32534;DHT22;18973;48.580;8.912;2023-06-04T01:39:38;15.80;90.90
32534;DHT22;18973;48.580;8.912;2023-06-04T01:42:04;15.80;90.90
32534;DHT22;18973;48.580;8.912;2023-06-04T01:44:30;15.80;90.70
32534;DHT22;18973;48.580;8.912;2023-06-04T01:46:56;15.80;90.80
32534;DHT22;18973;48.580;8.912;2023-06-04T01:49:21;15.70;91.00
32534;DHT22;18973;48.580;8.912;2023-06-04T01:51:47;15.70;90.60
32534;DHT22;18973;48.580;8.912;2023-06-04T01:54:13;15.60;90.30
32534;DHT22;18973;48.580;8.912;2023-06-04T01:56:38;15.70;89.90
32534;DHT22;18973;48.580;8.912;2023-06-04T01:59:04;15.70;89.30
32534;DHT22;18973;48.580;8.912;2023-06-04T02:01:30;15.70;89.20
32534;DHT22;18973;48.580;8.912;2023-06-04T02:03:55;15.80;88.40
32534;DHT22;18973;48.580;8.912;2023-06-04T02:06:21;15.80;87.80
32534;DHT22;18973;48.580;8.912;2023-06-04T02:08:47;15.80;87.80
32534;DHT22;18973;48.580;8.912;2023-06-04T02:11:12;15.90;87.50
32534;DHT22;18973;48.580;8.912;2023-06-04T02:13:38;15.90;87.60
32534;DHT22;18973;48.580;8.912;2023-06-04T02:16:04;15.90;87.30
32534;DHT22;18973;48.580;8.912;2023-06-04T02:18:30;15.90;87.60
32534;DHT22;18973;48.580;8.912;2023-06-04T02:20:56;15.80;87.00
32534;DHT22;18973;48.580;8.912;2023-06-04T02:23:22;15.80;87.40
32534;DHT22;18973;48.580;8.912;2023-06-04T02:25:48;15.90;87.20
32534;DHT22;18973;48.580;8.912;2023-06-04T02:28:15;15.90;86.60
32534;DHT22;18973;48.580;8.912;2023-06-04T02:30:41;15.90;85.80
32534;DHT22;18973;48.580;8.912;2023-06-04T02:33:07;15.80;87.10
32534;DHT22;18973;48.580;8.912;2023-06-04T02:35:35;15.70;90.20
32534;DHT22;18973;48.580;8.912;2023-06-04T02:38:02;15.50;90.80
32534;DHT22;18973;48.580;8.912;2023-06-04T02:40:28;15.40;91.00
32534;DHT22;18973;48.580;8.912;2023-06-04T02:42:54;15.10;91.70
32534;DHT22;18973;48.580;8.912;2023-06-04T02:45:21;15.10;91.60
32534;DHT22;18973;48.580;8.912;2023-06-04T02:47:47;15.20;90.10
32534;DHT22;18973;48.580;8.912;2023-06-04T02:50:14;15.20;90.80
32534;DHT22;18973;48.580;8.912;2023-06-04T02:52:41;15.20;91.10
32534;DHT22;18973;48.580;8.912;2023-06-04T02:55:07;15.20;91.50
32534;DHT22;18973;48.580;8.912;2023-06-04T02:57:35;15.20;91.50
32534;DHT22;18973;48.580;8.912;2023-06-04T03:00:02;15.00;92.40
32534;DHT22;18973;48.580;8.912;2023-06-04T03:02:36;15.00;92.40
32534;DHT22;18973;48.580;8.912;2023-06-04T03:05:01;15.00;91.90
32534;DHT22;18973;48.580;8.912;2023-06-04T03:07:27;14.90;91.70
32534;DHT22;18973;48.580;8.912;2023-06-04T03:09:53;14.80;92.10
32534;DHT22;18973;48.580;8.912;2023-06-04T03:12:19;14.90;91.20
32534;DHT22;18973;48.580;8.912;2023-06-04T03:14:44;14.90;91.20
32534;DHT22;18973;48.580;8.912;2023-06-04T03:17:10;14.90;91.80
32534;DHT22;18973;48.580;8.912;2023-06-04T03:19:40;14.90;91.90
32534;DHT22;18973;48.580;8.912;2023-06-04T03:22:07;14.70;92.70
32534;DHT22;18973;48.580;8.912;2023-06-04T03:24:38;14.50;93.20
32534;DHT22;18973;48.580;8.912;2023-06-04T03:27:05;14.50;93.00
32534;DHT22;18973;48.580;8.912;2023-06-04T03:29:31;14.60;92.90
32534;DHT22;18973;48.580;8.912;2023-06-04T03:31:58;14.40;93.50
32534;DHT22;18973;48.580;8.912;2023-06-04T03:34:23;14.40;93.30
32534;DHT22;18973;48.580;8.912;2023-06-04T03:36:53;14.30;94.00
32534;DHT22;18973;48.580;8.912;2023-06-04T03:39:20;14.40;94.40
32534;DHT22;18973;48.580;8.912;2023-06-04T03:41:46;14.30;94.30
32534;DHT22;18973;48.580;8.912;2023-06-04T03:44:18;14.30;94.60
32534;DHT22;18973;48.580;8.912;2023-06-04T03:46:44;14.10;95.00
32534;DHT22;18973;48.580;8.912;2023-06-04T03:49:10;14.10;95.50
32534;DHT22;18973;48.580;8.912;2023-06-04T03:51:41;14.10;95.30
32534;DHT22;18973;48.580;8.912;2023-06-04T03:54:07;14.10;95.90
32534;DHT22;18973;48.580;8.912;2023-06-04T03:56:32;14.10;95.80
32534;DHT22;18973;48.580;8.912;2023-06-04T03:58:58;14.10;96.30
32534;DHT22;18973;48.580;8.912;2023-06-04T04:01:24;14.00;96.70
32534;DHT22;18973;48.580;8.912;2023-06-04T04:03:51;14.00;96.70
32534;DHT22;18973;48.580;8.912;2023-06-04T04:06:17;14.10;96.70
32534;DHT22;18973;48.580;8.912;2023-06-04T04:08:43;13.90;96.60
32534;DHT22;18973;48.580;8.912;2023-06-04T04:11:13;13.70;96.50
32534;DHT22;18973;48.580;8.912;2023-06-04T04:13:39;13.80;96.30
32534;DHT22;18973;48.580;8.912;2023-06-04T04:16:05;13.70;98.10
32534;DHT22;18973;48.580;8.912;2023-06-04T04:18:35;14.40;99.90
32534;DHT22;18973;48.580;8.912;2023-06-04T04:21:01;15.10;99.90
32534;DHT22;18973;48.580;8.912;2023-06-04T04:23:28;15.60;98.20
32534;DHT22;18973;48.580;8.912;2023-06-04T04:25:54;15.90;97.20
32534;DHT22;18973;48.580;8.912;2023-06-04T04:28:22;16.30;95.60
32534;DHT22;18973;48.580;8.912;2023-06-04T04:30:48;16.50;93.00
32534;DHT22;18973;48.580;8.912;2023-06-04T04:33:14;16.70;92.50
32534;DHT22;18973;48.580;8.912;2023-06-04T04:35:42;16.90;91.50
32534;DHT22;18973;48.580;8.912;2023-06-04T04:38:09;17.00;91.40
32534;DHT22;18973;48.580;8.912;2023-06-04T04:40:36;17.00;90.30
32534;DHT22;18973;48.580;8.912;2023-06-04T04:43:02;16.80;90.30
32534;DHT22;18973;48.580;8.912;2023-06-04T04:45:28;17.00;90.30
32534;DHT22;18973;48.580;8.912;2023-06-04T04:47:53;17.20;90.10
32534;DHT22;18973;48.580;8.912;2023-06-04T04:50:19;17.40;89.40
32534;DHT22;18973;48.580;8.912;2023-06-04T04:52:45;17.50;88.70
32534;DHT22;18973;48.580;8.912;2023-06-04T04:55:11;17.70;87.10
32534;DHT22;18973;48.580;8.912;2023-06-04T04:57:38;17.60;88.60
32534;DHT22;18973;48.580;8.912;2023-06-04T05:00:04;17.60;89.10
32534;DHT22;18973;48.580;8.912;2023-06-04T05:02:38;17.60;89.90
32534;DHT22;18973;48.580;8.912;2023-06-04T05:05:03;17.70;88.70
32534;DHT22;18973;48.580;8.912;2023-06-04T05:07:29;17.70;89.70
32534;DHT22;18973;48.580;8.912;2023-06-04T05:09:55;17.70;89.30
32534;DHT22;18973;48.580;8.912;2023-06-04T05:12:21;17.80;88.70
32534;DHT22;18973;48.580;8.912;2023-06-04T05:14:46;17.70;88.80
32534;DHT22;18973;48.580;8.912;2023-06-04T05:17:12;17.80;88.20
32534;DHT22;18973;48.580;8.912;2023-06-04T05:19:39;18.00;88.10
32534;DHT22;18973;48.580;8.912;2023-06-04T05:22:05;18.00;87.40
32534;DHT22;18973;48.580;8.912;2023-06-04T05:24:34;18.10;85.80
32534;DHT22;18973;48.580;8.912;2023-06-04T05:26:59;18.20;86.50
32534;DHT22;18973;48.580;8.912;2023-06-04T05:29:25;18.30;84.60
32534;DHT22;18973;48.580;8.912;2023-06-04T05:31:51;18.40;85.00
32534;DHT22;18973;48.580;8.912;2023-06-04T05:34:17;18.30;85.40
32534;DHT22;18973;48.580;8.912;2023-06-04T05:36:43;18.40;84.50
32534;DHT22;18973;48.580;8.912;2023-06-04T05:39:09;18.40;85.20
32534;DHT22;18973;48.580;8.912;2023-06-04T05:41:36;18.50;85.10
32534;DHT22;18973;48.580;8.912;2023-06-04T05:44:02;18.40;86.00
32534;DHT22;18973;48.580;8.912;2023-06-04T05:46:28;18.60;82.00
32534;DHT22;18973;48.580;8.912;2023-06-04T05:48:54;18.60;83.40
32534;DHT22;18973;48.580;8.912;2023-06-04T05:51:20;18.70;82.60
32534;DHT22;18973;48.580;8.912;2023-06-04T05:53:47;18.80;80.90
32534;DHT22;18973;48.580;8.912;2023-06-04T05:56:13;19.00;80.80
32534;DHT22;18973;48.580;8.912;2023-06-04T05:58:38;19.00;80.20
32534;DHT22;18973;48.580;8.912;2023-06-04T06:01:05;18.50;78.50
32534;DHT22;18973;48.580;8.912;2023-06-04T06:03:30;18.50;81.40
32534;DHT22;18973;48.580;8.912;2023-06-04T06:05:57;18.40;81.80
32534;DHT22;18973;48.580;8.912;2023-06-04T06:08:25;18.30;81.60
32534;DHT22;18973;48.580;8.912;2023-06-04T06:10:51;18.40;78.70
32534;DHT22;18973;48.580;8.912;2023-06-04T06:13:16;18.40;79.90
32534;DHT22;18973;48.580;8.912;2023-06-04T06:15:42;18.30;79.00
32534;DHT22;18973;48.580;8.912;2023-06-04T06:18:08;18.50;80.00
32534;DHT22;18973;48.580;8.912;2023-06-04T06:20:34;18.60;80.00
32534;DHT22;18973;48.580;8.912;2023-06-04T06:23:07;18.80;79.90
32534;DHT22;18973;48.580;8.912;2023-06-04T06:25:33;18.90;80.10
32534;DHT22;18973;48.580;8.912;2023-06-04T06:27:58;19.10;79.90
32534;DHT22;18973;48.580;8.912;2023-06-04T06:30:24;18.90;79.80
32534;DHT22;18973;48.580;8.912;2023-06-04T06:32:50;19.00;78.70
32534;DHT22;18973;48.580;8.912;2023-06-04T06:35:17;19.10;79.90
32534;DHT22;18973;48.580;8.912;2023-06-04T06:37:43;19.00;77.50
32534;DHT22;18973;48.580;8.912;2023-06-04T06:40:09;18.90;77.50
32534;DHT22;18973;48.580;8.912;2023-06-04T06:42:35;19.00;78.60
32534;DHT22;18973;48.580;8.912;2023-06-04T06:45:01;18.90;77.80
32534;DHT22;18973;48.580;8.912;2023-06-04T06:47:27;19.00;78.50
32534;DHT22;18973;48.580;8.912;2023-06-04T06:49:52;19.20;79.30
32534;DHT22;18973;48.580;8.912;2023-06-04T06:52:18;19.40;79.00
32534;DHT22;18973;48.580;8.912;2023-06-04T06:54:45;19.50;79.30
32534;DHT22;18973;48.580;8.912;2023-06-04T06:57:11;19.30;78.40
32534;DHT22;18973;48.580;8.912;2023-06-04T06:59:37;19.20;80.00
32534;DHT22;18973;48.580;8.912;2023-06-04T07:02:04;19.30;80.70
32534;DHT22;18973;48.580;8.912;2023-06-04T07:04:30;19.60;81.50
32534;DHT22;18973;48.580;8.912;2023-06-04T07:06:56;19.70;79.70
32534;DHT22;18973;48.580;8.912;2023-06-04T07:09:22;19.90;79.00
32534;DHT22;18973;48.580;8.912;2023-06-04T07:11:47;20.00;78.50
32534;DHT22;18973;48.580;8.912;2023-06-04T07:14:14;20.00;78.80
32534;DHT22;18973;48.580;8.912;2023-06-04T07:16:39;20.10;79.40
32534;DHT22;18973;48.580;8.912;2023-06-04T07:19:05;20.30;77.50
32534;DHT22;18973;48.580;8.912;2023-06-04T07:21:31;20.50;78.20
32534;DHT22;18973;48.580;8.912;2023-06-04T07:23:56;20.50;78.20
32534;DHT22;18973;48.580;8.912;2023-06-04T07:26:22;20.70;77.10
32534;DHT22;18973;48.580;8.912;2023-06-04T07:28:48;20.70;76.10
32534;DHT22;18973;48.580;8.912;2023-06-04T07:31:17;20.80;77.00
32534;DHT22;18973;48.580;8.912;2023-06-04T07:33:43;21.10;75.80
32534;DHT22;18973;48.580;8.912;2023-06-04T07:36:18;21.20;75.60
32534;DHT22;18973;48.580;8.912;2023-06-04T07:38:44;21.40;75.90
32534;DHT22;18973;48.580;8.912;2023-06-04T07:41:10;21.50;76.40
32534;DHT22;18973;48.580;8.912;2023-06-04T07:43:36;21.60;75.80
32534;DHT22;18973;48.580;8.912;2023-06-04T07:46:03;21.70;73.90
32534;DHT22;18973;48.580;8.912;2023-06-04T07:48:29;21.90;75.00
32534;DHT22;18973;48.580;8.912;2023-06-04T07:50:58;22.10;71.60
32534;DHT22;18973;48.580;8.912;2023-06-04T07:53:24;22.20;72.10
32534;DHT22;18973;48.580;8.912;2023-06-04T07:55:50;22.30;72.00
32534;DHT22;18973;48.580;8.912;2023-06-04T07:58:16;22.40;72.40
32534;DHT22;18973;48.580;8.912;2023-06-04T08:00:42;22.40;71.40
32534;DHT22;18973;48.580;8.912;2023-06-04T08:03:07;22.40;73.50
32534;DHT22;18973;48.580;8.912;2023-06-04T08:05:34;21.80;72.90
32534;DHT22;18973;48.580;8.912;2023-06-04T08:08:00;21.80;74.90
32534;DHT22;18973;48.580;8.912;2023-06-04T08:10:25;22.10;75.00
32534;DHT22;18973;48.580;8.912;2023-06-04T08:12:51;22.40;72.80
32534;DHT22;18973;48.580;8.912;2023-06-04T08:15:17;22.50;71.10
32534;DHT22;18973;48.580;8.912;2023-06-04T10:22:40;25.60;61.40
32534;DHT22;18973;48.580;8.912;2023-06-04T10:25:09;25.70;60.20
32534;DHT22;18973;48.580;8.912;2023-06-04T10:27:35;26.20;62.20
32534;DHT22;18973;48.580;8.912;2023-06-04T10:30:03;26.30;60.60
32534;DHT22;18973;48.580;8.912;2023-06-04T10:32:30;26.20;59.10
32534;DHT22;18973;48.580;8.912;2023-06-04T10:34:56;26.20;58.70
32534;DHT22;18973;48.580;8.912;2023-06-04T10:37:26;26.30;58.60
32534;DHT22;18973;48.580;8.912;2023-06-04T11:20:50;26.20;57.80
32534;DHT22;18973;48.580;8.912;2023-06-04T11:23:16;26.10;56.90
32534;DHT22;18973;48.580;8.912;2023-06-04T11:25:43;26.40;57.80
32534;DHT22;18973;48.580;8.912;2023-06-04T11:28:16;26.90;57.80
32534;DHT22;18973;48.580;8.912;2023-06-04T11:30:43;27.20;56.80
32534;DHT22;18973;48.580;8.912;2023-06-04T11:33:09;27.40;57.00
32534;DHT22;18973;48.580;8.912;2023-06-04T11:35:42;27.60;57.10
32534;DHT22;18973;48.580;8.912;2023-06-04T11:38:09;27.40;54.90
32534;DHT22;18973;48.580;8.912;2023-06-04T11:40:35;27.40;56.50
32534;DHT22;18973;48.580;8.912;2023-06-04T11:43:01;27.80;57.40
32534;DHT22;18973;48.580;8.912;2023-06-04T11:45:28;27.50;55.70
32534;DHT22;18973;48.580;8.912;2023-06-04T11:47:56;27.10;54.70
32534;DHT22;18973;48.580;8.912;2023-06-04T11:50:27;27.10;55.40
32534;DHT22;18973;48.580;8.912;2023-06-04T11:52:53;26.50;53.90
32534;DHT22;18973;48.580;8.912;2023-06-04T11:55:19;26.50;55.10
32534;DHT22;18973;48.580;8.912;2023-06-04T11:57:49;26.00;55.20
32534;DHT22;18973;48.580;8.912;2023-06-04T12:00:17;25.80;57.40
32534;DHT22;18973;48.580;8.912;2023-06-04T12:02:50;26.00;57.80
32534;DHT22;18973;48.580;8.912;2023-06-04T12:05:17;26.60;58.20
32534;DHT22;18973;48.580;8.912;2023-06-04T12:07:50;26.90;56.80
32534;DHT22;18973;48.580;8.912;2023-06-04T12:10:17;27.00;56.10
32534;DHT22;18973;48.580;8.912;2023-06-04T12:12:43;27.60;55.50
32534;DHT22;18973;48.580;8.912;2023-06-04T12:15:09;27.60;54.70
32534;DHT22;18973;48.580;8.912;2023-06-04T12:17:49;27.50;54.20
32534;DHT22;18973;48.580;8.912;2023-06-04T12:20:15;27.40;55.30
32534;DHT22;18973;48.580;8.912;2023-06-04T12:22:45;27.50;55.30
32534;DHT22;18973;48.580;8.912;2023-06-04T12:25:12;27.80;54.20
32534;DHT22;18973;48.580;8.912;2023-06-04T12:27:46;28.10;55.00
32534;DHT22;18973;48.580;8.912;2023-06-04T12:30:13;28.10;52.90
32534;DHT22;18973;48.580;8.912;2023-06-04T12:32:38;28.10;53.10
32534;DHT22;18973;48.580;8.912;2023-06-04T12:35:04;27.80;53.40
32534;DHT22;18973;48.580;8.912;2023-06-04T12:37:30;27.50;53.10
32534;DHT22;18973;48.580;8.912;2023-06-04T12:39:56;27.50;53.40
32534;DHT22;18973;48.580;8.912;2023-06-04T12:42:22;27.50;54.10
32534;DHT22;18973;48.580;8.912;2023-06-04T12:44:48;27.60;55.10
32534;DHT22;18973;48.580;8.912;2023-06-04T12:47:14;27.70;52.50
32534;DHT22;18973;48.580;8.912;2023-06-04T12:49:42;27.70;54.60
32534;DHT22;18973;48.580;8.912;2023-06-04T12:52:08;28.00;53.00
32534;DHT22;18973;48.580;8.912;2023-06-04T12:54:33;28.00;54.60
32534;DHT22;18973;48.580;8.912;2023-06-04T12:56:59;27.60;53.60
32534;DHT22;18973;48.580;8.912;2023-06-04T12:59:27;27.60;52.50
32534;DHT22;18973;48.580;8.912;2023-06-04T13:01:56;27.70;51.50
32534;DHT22;18973;48.580;8.912;2023-06-04T13:04:22;27.90;53.20
32534;DHT22;18973;48.580;8.912;2023-06-04T13:06:49;28.10;53.10
32534;DHT22;18973;48.580;8.912;2023-06-04T13:09:18;27.70;51.80
32534;DHT22;18973;48.580;8.912;2023-06-04T13:11:45;27.60;52.30
32534;DHT22;18973;48.580;8.912;2023-06-04T13:14:11;27.30;52.70
32534;DHT22;18973;48.580;8.912;2023-06-04T13:16:40;27.00;53.90
32534;DHT22;18973;48.580;8.912;2023-06-04T13:19:07;26.70;53.00
32534;DHT22;18973;48.580;8.912;2023-06-04T13:21:33;26.60;52.10
32534;DHT22;18973;48.580;8.912;2023-06-04T13:23:59;26.90;53.40
32534;DHT22;18973;48.580;8.912;2023-06-04T13:26:25;27.20;52.90
32534;DHT22;18973;48.580;8.912;2023-06-04T13:28:51;27.40;52.50
32534;DHT22;18973;48.580;8.912;2023-06-04T13:31:16;27.80;53.10
32534;DHT22;18973;48.580;8.912;2023-06-04T13:33:42;27.80;52.00
32534;DHT22;18973;48.580;8.912;2023-06-04T13:36:08;27.50;52.80
32534;DHT22;18973;48.580;8.912;2023-06-04T13:38:34;27.40;53.10
32534;DHT22;18973;48.580;8.912;2023-06-04T13:41:00;26.90;52.90
32534;DHT22;18973;48.580;8.912;2023-06-04T13:43:25;27.00;51.70
32534;DHT22;18973;48.580;8.912;2023-06-04T13:45:51;27.40;52.40
32534;DHT22;18973;48.580;8.912;2023-06-04T13:48:17;27.30;50.90
32534;DHT22;18973;48.580;8.912;2023-06-04T13:50:43;26.90;51.00
32534;DHT22;18973;48.580;8.912;2023-06-04T13:53:09;26.50;51.80
32534;DHT22;18973;48.580;8.912;2023-06-04T13:55:35;26.00;51.80
32534;DHT22;18973;48.580;8.912;2023-06-04T13:58:01;25.60;51.60
32534;DHT22;18973;48.580;8.912;2023-06-04T14:00:26;25.50;52.40
32534;DHT22;18973;48.580;8.912;2023-06-04T14:02:52;25.80;52.50
32534;DHT22;18973;48.580;8.912;2023-06-04T14:05:20;25.80;51.70
32534;DHT22;18973;48.580;8.912;2023-06-04T14:07:46;25.70;51.00
32534;DHT22;18973;48.580;8.912;2023-06-04T14:10:12;25.30;51.30
32534;DHT22;18973;48.580;8.912;2023-06-04T14:12:39;25.60;52.50
32534;DHT22;18973;48.580;8.912;2023-06-04T14:15:07;25.50;51.60
32534;DHT22;18973;48.580;8.912;2023-06-04T14:17:34;25.50;51.80
32534;DHT22;18973;48.580;8.912;2023-06-04T14:20:01;25.60;52.10
32534;DHT22;18973;48.580;8.912;2023-06-04T14:22:26;25.80;52.20
32534;DHT22;18973;48.580;8.912;2023-06-04T14:24:52;25.70;50.20
32534;DHT22;18973;48.580;8.912;2023-06-04T14:27:18;25.80;50.30
32534;DHT22;18973;48.580;8.912;2023-06-04T14:29:43;25.90;50.80
32534;DHT22;18973;48.580;8.912;2023-06-04T14:32:09;25.90;49.50
32534;DHT22;18973;48.580;8.912;2023-06-04T14:34:35;26.10;50.90
32534;DHT22;18973;48.580;8.912;2023-06-04T14:37:01;26.40;51.00
32534;DHT22;18973;48.580;8.912;2023-06-04T14:39:27;26.20;48.90
32534;DHT22;18973;48.580;8.912;2023-06-04T14:41:53;26.20;48.80
32534;DHT22;18973;48.580;8.912;2023-06-04T14:44:19;26.30;49.00
32534;DHT22;18973;48.580;8.912;2023-06-04T14:46:45;26.20;49.90
32534;DHT22;18973;48.580;8.912;2023-06-04T14:49:11;26.10;49.90
32534;DHT22;18973;48.580;8.912;2023-06-04T14:51:37;26.10;50.40
32534;DHT22;18973;48.580;8.912;2023-06-04T14:54:02;26.00;51.10
32534;DHT22;18973;48.580;8.912;2023-06-04T14:56:28;26.30;50.80
32534;DHT22;18973;48.580;8.912;2023-06-04T14:58:56;26.20;51.10
32534;DHT22;18973;48.580;8.912;2023-06-04T15:01:21;26.00;50.30
32534;DHT22;18973;48.580;8.912;2023-06-04T15:03:50;25.80;50.10
32534;DHT22;18973;48.580;8.912;2023-06-04T15:06:16;25.50;50.20
32534;DHT22;18973;48.580;8.912;2023-06-04T15:08:42;25.50;50.90
32534;DHT22;18973;48.580;8.912;2023-06-04T15:11:10;25.40;51.10
32534;DHT22;18973;48.580;8.912;2023-06-04T15:13:36;25.30;50.80
32534;DHT22;18973;48.580;8.912;2023-06-04T15:16:02;25.40;50.80
32534;DHT22;18973;48.580;8.912;2023-06-04T15:18:28;25.40;51.10
32534;DHT22;18973;48.580;8.912;2023-06-04T15:20:54;25.40;52.20
32534;DHT22;18973;48.580;8.912;2023-06-04T15:23:20;25.70;53.20
32534;DHT22;18973;48.580;8.912;2023-06-04T15:25:45;25.90;52.00
32534;DHT22;18973;48.580;8.912;2023-06-04T15:28:11;25.80;50.40
32534;DHT22;18973;48.580;8.912;2023-06-04T15:30:37;25.40;50.80
32534;DHT22;18973;48.580;8.912;2023-06-04T15:33:02;25.20;50.90
32534;DHT22;18973;48.580;8.912;2023-06-04T15:35:28;25.30;51.70
32534;DHT22;18973;48.580;8.912;2023-06-04T15:37:54;25.40;51.80
32534;DHT22;18973;48.580;8.912;2023-06-04T15:40:20;25.50;51.50
32534;DHT22;18973;48.580;8.912;2023-06-04T15:42:46;25.50;50.80
32534;DHT22;18973;48.580;8.912;2023-06-04T15:45:11;25.30;50.10
32534;DHT22;18973;48.580;8.912;2023-06-04T15:47:37;25.20;50.10
32534;DHT22;18973;48.580;8.912;2023-06-04T15:50:03;25.10;50.00
32534;DHT22;18973;48.580;8.912;2023-06-04T15:52:29;25.20;50.50
32534;DHT22;18973;48.580;8.912;2023-06-04T15:54:54;25.00;50.70
32534;DHT22;18973;48.580;8.912;2023-06-04T15:57:20;25.20;51.20
32534;DHT22;18973;48.580;8.912;2023-06-04T15:59:46;25.30;51.40
32534;DHT22;18973;48.580;8.912;2023-06-04T16:02:11;25.20;50.80
32534;DHT22;18973;48.580;8.912;2023-06-04T16:04:37;25.10;50.30
32534;DHT22;18973;48.580;8.912;2023-06-04T16:07:04;25.00;50.10
32534;DHT22;18973;48.580;8.912;2023-06-04T16:09:30;24.70;51.10
32534;DHT22;18973;48.580;8.912;2023-06-04T16:11:56;24.70;50.30
32534;DHT22;18973;48.580;8.912;2023-06-04T16:14:22;24.60;50.70
32534;DHT22;18973;48.580;8.912;2023-06-04T16:16:47;24.50;50.20
32534;DHT22;18973;48.580;8.912;2023-06-04T16:19:13;24.30;51.50
32534;DHT22;18973;48.580;8.912;2023-06-04T16:21:39;24.20;51.60
32534;DHT22;18973;48.580;8.912;2023-06-04T16:24:05;24.30;52.30
32534;DHT22;18973;48.580;8.912;2023-06-04T16:26:30;24.30;51.60
32534;DHT22;18973;48.580;8.912;2023-06-04T16:28:56;24.50;51.90
32534;DHT22;18973;48.580;8.912;2023-06-04T16:31:22;24.60;51.80
32534;DHT22;18973;48.580;8.912;2023-06-04T16:33:48;24.60;51.40
32534;DHT22;18973;48.580;8.912;2023-06-04T16:36:13;24.70;51.30
32534;DHT22;18973;48.580;8.912;2023-06-04T16:38:39;24.60;51.20
32534;DHT22;18973;48.580;8.912;2023-06-04T16:41:05;24.70;52.30
32534;DHT22;18973;48.580;8.912;2023-06-04T16:43:31;24.80;52.70
32534;DHT22;18973;48.580;8.912;2023-06-04T16:45:56;24.70;51.70
32534;DHT22;18973;48.580;8.912;2023-06-04T16:48:22;24.60;51.80
32534;DHT22;18973;48.580;8.912;2023-06-04T16:50:48;24.50;50.70
32534;DHT22;18973;48.580;8.912;2023-06-04T16:53:14;24.30;51.50
32534;DHT22;18973;48.580;8.912;2023-06-04T16:55:40;24.30;52.00
32534;DHT22;18973;48.580;8.912;2023-06-04T16:58:05;24.20;51.00
32534;DHT22;18973;48.580;8.912;2023-06-04T17:00:32;24.30;51.90
32534;DHT22;18973;48.580;8.912;2023-06-04T17:02:58;24.20;50.80
32534;DHT22;18973;48.580;8.912;2023-06-04T17:05:26;24.20;51.60
32534;DHT22;18973;48.580;8.912;2023-06-04T17:07:53;24.20;51.20
32534;DHT22;18973;48.580;8.912;2023-06-04T17:10:20;24.10;51.50
32534;DHT22;18973;48.580;8.912;2023-06-04T17:12:46;24.10;50.90
32534;DHT22;18973;48.580;8.912;2023-06-04T17:15:12;24.00;49.70
32534;DHT22;18973;48.580;8.912;2023-06-04T17:17:37;23.90;51.00
32534;DHT22;18973;48.580;8.912;2023-06-04T17:20:03;23.80;50.80
32534;DHT22;18973;48.580;8.912;2023-06-04T17:22:29;23.80;50.10
32534;DHT22;18973;48.580;8.912;2023-06-04T17:24:55;23.80;51.20
32534;DHT22;18973;48.580;8.912;2023-06-04T17:27:21;23.70;51.30
32534;DHT22;18973;48.580;8.912;2023-06-04T17:29:46;23.70;51.30
32534;DHT22;18973;48.580;8.912;2023-06-04T17:32:12;23.70;51.50
32534;DHT22;18973;48.580;8.912;2023-06-04T17:34:39;23.60;51.00
32534;DHT22;18973;48.580;8.912;2023-06-04T17:37:05;23.70;51.10
32534;DHT22;18973;48.580;8.912;2023-06-04T17:39:34;23.70;51.70
32534;DHT22;18973;48.580;8.912;2023-06-04T17:42:00;23.70;52.80
32534;DHT22;18973;48.580;8.912;2023-06-04T17:44:26;23.80;51.40
32534;DHT22;18973;48.580;8.912;2023-06-04T17:46:52;23.70;51.10
32534;DHT22;18973;48.580;8.912;2023-06-04T17:49:18;23.60;51.60
32534;DHT22;18973;48.580;8.912;2023-06-04T17:51:44;23.40;51.30
32534;DHT22;18973;48.580;8.912;2023-06-04T17:54:13;23.30;51.60
32534;DHT22;18973;48.580;8.912;2023-06-04T17:56:38;23.20;51.60
32534;DHT22;18973;48.580;8.912;2023-06-04T17:59:05;23.20;52.80
32534;DHT22;18973;48.580;8.912;2023-06-04T18:01:31;23.20;53.70
32534;DHT22;18973;48.580;8.912;2023-06-04T18:03:57;23.10;52.20
32534;DHT22;18973;48.580;8.912;2023-06-04T18:06:23;23.10;52.50
32534;DHT22;18973;48.580;8.912;2023-06-04T18:08:49;22.90;53.50
32534;DHT22;18973;48.580;8.912;2023-06-04T18:11:16;23.00;53.80
32534;DHT22;18973;48.580;8.912;2023-06-04T18:13:41;22.90;53.20
32534;DHT22;18973;48.580;8.912;2023-06-04T18:16:08;23.00;53.80
32534;DHT22;18973;48.580;8.912;2023-06-04T18:18:42;22.90;53.80